Time;durP1;ratioP1;P1;durP2;ratioP2;P2;SDS_P1;SDS_P2;PMS_P1;PMS_P2;Temp;Humidity;BMP_temperature;BMP_pressure;BME280_temperature;BME280_humidity;BME280_pressure;Samples;Min_cycle;Max_cycle;Signal;HPM_P1;HPM_P2
2023/09/20 00:01:22;;;;;;;11.93;9.80;;;;;;;14.48;nan;99347.31;5080725;27;20540;-69
2023/09/20 00:03:48;;;;;;;15.60;9.73;;;;;;;14.44;nan;99354.81;5116873;27;20043;-71
2023/09/20 00:06:13;;;;;;;12.10;9.60;;;;;;;14.50;nan;99348.03;5098373;27;20392;-72
2023/09/20 00:08:39;;;;;;;13.32;9.18;;;;;;;14.44;nan;99353.97;5094817;27;20202;-72
2023/09/20 00:11:07;;;;;;;14.38;10.27;;;;;;;14.43;nan;99350.44;5096461;27;20596;-72
2023/09/20 00:13:33;;;;;;;13.52;9.40;;;;;;;14.40;nan;99336.44;5095441;27;20043;-71
2023/09/20 00:15:58;;;;;;;13.20;9.23;;;;;;;14.38;nan;99362.53;5095963;27;20050;-71
2023/09/20 00:18:24;;;;;;;17.45;10.90;;;;;;;14.37;nan;99374.25;5095986;27;20061;-71
2023/09/20 00:20:49;;;;;;;12.57;9.80;;;;;;;14.36;nan;99340.34;5077889;27;20043;-70
2023/09/20 00:23:20;;;;;;;16.75;10.13;;;;;;;14.39;nan;99353.50;5096133;27;20125;-71
2023/09/20 00:25:46;;;;;;;13.65;9.85;;;;;;;14.35;nan;99357.44;5092177;27;20035;-73
2023/09/20 00:28:11;;;;;;;13.38;9.60;;;;;;;14.33;nan;99351.38;5095719;27;20042;-73
2023/09/20 00:30:37;;;;;;;14.88;9.98;;;;;;;14.33;nan;99348.72;5094180;27;20058;-72
2023/09/20 00:33:02;;;;;;;13.52;9.52;;;;;;;14.28;nan;99354.47;5094061;27;20066;-71
2023/09/20 00:35:28;;;;;;;12.25;8.10;;;;;;;14.38;nan;99344.59;5095822;27;20046;-72
2023/09/20 00:37:53;;;;;;;14.68;9.82;;;;;;;14.30;nan;99349.81;5094515;27;20050;-71
2023/09/20 00:40:21;;;;;;;16.48;9.52;;;;;;;14.24;nan;99353.06;5095640;27;20050;-73
2023/09/20 00:42:51;;;;;;;12.27;8.98;;;;;;;14.19;nan;99349.97;5095369;27;20695;-71
2023/09/20 00:45:19;;;;;;;14.95;9.82;;;;;;;14.14;nan;99358.41;5087314;27;20512;-72
2023/09/20 00:48:05;;;;;;;14.27;9.48;;;;;;;14.23;nan;99350.50;5094397;27;20051;-70
2023/09/20 00:50:34;;;;;;;13.32;10.07;;;;;;;14.08;nan;99369.69;5094201;27;20049;-71
2023/09/20 00:53:00;;;;;;;14.40;10.55;;;;;;;14.10;nan;99362.38;5093363;27;20051;-73
2023/09/20 00:55:33;;;;;;;15.52;10.32;;;;;;;14.11;nan;99364.03;5086428;27;20058;-71
2023/09/20 00:58:03;;;;;;;13.95;10.05;;;;;;;14.07;nan;99357.28;5093966;27;20405;-72
2023/09/20 01:00:32;;;;;;;13.00;8.98;;;;;;;14.03;nan;99366.56;5095373;27;20047;-73
2023/09/20 01:03:00;;;;;;;15.13;9.77;;;;;;;14.03;nan;99355.84;5093212;27;20405;-73
2023/09/20 01:05:26;;;;;;;12.52;9.45;;;;;;;14.02;nan;99348.78;5092361;27;20050;-70
2023/09/20 01:07:56;;;;;;;17.27;10.32;;;;;;;14.00;nan;99355.28;5097096;27;20054;-71
2023/09/20 01:10:24;;;;;;;13.48;8.85;;;;;;;14.02;nan;99348.78;5087546;27;20039;-71
2023/09/20 01:12:57;;;;;;;16.20;10.32;;;;;;;14.05;nan;99358.41;5115794;27;20049;-70
2023/09/20 01:15:22;;;;;;;14.48;9.88;;;;;;;13.95;nan;99347.66;5115810;27;20058;-70
2023/09/20 01:17:49;;;;;;;16.35;9.50;;;;;;;13.92;nan;99347.06;5097195;27;20057;-71
2023/09/20 01:20:17;;;;;;;15.27;9.75;;;;;;;13.88;nan;99346.53;5096288;27;20050;-72
2023/09/20 01:22:43;;;;;;;12.98;10.38;;;;;;;13.81;nan;99351.56;5095701;27;20043;-70
2023/09/20 01:25:11;;;;;;;15.15;10.32;;;;;;;13.83;nan;99354.13;5095611;27;20045;-73
2023/09/20 01:27:38;;;;;;;14.35;9.70;;;;;;;13.90;nan;99363.28;5120212;27;20050;-76
2023/09/20 01:30:05;;;;;;;16.55;10.38;;;;;;;13.81;nan;99358.75;5084619;27;20493;-75
2023/09/20 01:32:30;;;;;;;19.95;10.13;;;;;;;13.76;nan;99359.19;5119682;27;20083;-76
2023/09/20 01:34:56;;;;;;;14.55;10.48;;;;;;;13.76;nan;99359.19;5119798;27;20030;-76
2023/09/20 01:37:21;;;;;;;12.75;9.55;;;;;;;13.81;nan;99356.09;5083735;27;20050;-72
2023/09/20 01:39:47;;;;;;;19.55;10.80;;;;;;;13.80;nan;99355.22;5096779;27;20046;-71
2023/09/20 01:42:12;;;;;;;15.13;10.15;;;;;;;13.74;nan;99350.44;5084136;27;20047;-72
2023/09/20 01:44:38;;;;;;;19.90;11.23;;;;;;;13.74;nan;99360.31;5119916;27;20416;-72
2023/09/20 01:47:04;;;;;;;13.60;9.75;;;;;;;13.71;nan;99340.00;5101523;27;20057;-71
2023/09/20 01:49:34;;;;;;;17.10;9.85;;;;;;;13.66;nan;99352.94;5119023;27;20516;-71
2023/09/20 01:52:01;;;;;;;12.18;9.57;;;;;;;13.64;nan;99346.88;5100921;27;20524;-70
2023/09/20 01:54:28;;;;;;;15.38;10.38;;;;;;;13.63;nan;99357.72;5119496;27;20043;-72
2023/09/20 01:56:55;;;;;;;13.95;10.27;;;;;;;13.60;nan;99353.50;5100831;27;20555;-72
2023/09/20 01:59:21;;;;;;;12.40;9.93;;;;;;;13.58;nan;99349.25;5101047;27;20038;-72
2023/09/20 02:01:48;;;;;;;14.00;10.48;;;;;;;13.55;nan;99371.78;5060331;27;20055;-72
2023/09/20 02:04:21;;;;;;;14.50;9.35;;;;;;;13.58;nan;99354.59;5079794;27;20509;-73
2023/09/20 02:06:46;;;;;;;15.95;10.85;;;;;;;13.61;nan;99354.34;5118624;27;20042;-72
2023/09/20 02:09:13;;;;;;;17.85;11.43;;;;;;;13.51;nan;99359.66;5100827;27;20051;-71
2023/09/20 02:11:39;;;;;;;13.13;9.77;;;;;;;13.54;nan;99369.25;5083068;27;20042;-71
2023/09/20 02:14:04;;;;;;;14.68;10.75;;;;;;;13.49;nan;99339.34;5100524;27;20035;-71
2023/09/20 02:16:32;;;;;;;14.48;10.55;;;;;;;13.54;nan;99364.75;5082263;27;20055;-71
2023/09/20 02:18:58;;;;;;;12.80;9.38;;;;;;;13.59;nan;99350.94;5119195;27;20045;-71
2023/09/20 02:21:23;;;;;;;13.68;9.85;;;;;;;13.50;nan;99341.91;5099690;27;20038;-71
2023/09/20 02:23:56;;;;;;;15.25;11.20;;;;;;;13.47;nan;99347.50;5082927;27;20035;-73
2023/09/20 02:26:21;;;;;;;14.43;10.60;;;;;;;13.42;nan;99339.06;5116181;27;20404;-73
2023/09/20 02:28:48;;;;;;;13.10;10.32;;;;;;;13.39;nan;99342.84;5118341;27;20059;-72
2023/09/20 02:31:13;;;;;;;15.27;10.10;;;;;;;13.36;nan;99344.94;5099450;27;20042;-71
2023/09/20 02:33:39;;;;;;;13.30;9.48;;;;;;;13.33;nan;99334.47;5117335;27;20035;-71
2023/09/20 02:36:05;;;;;;;18.50;10.98;;;;;;;13.35;nan;99344.09;5100341;27;20051;-71
2023/09/20 02:38:30;;;;;;;14.18;10.18;;;;;;;13.31;nan;99342.69;5098436;27;20057;-71
2023/09/20 02:40:57;;;;;;;12.68;9.77;;;;;;;13.34;nan;99346.88;5117826;27;20047;-71
2023/09/20 02:43:23;;;;;;;14.50;9.27;;;;;;;13.32;nan;99371.13;5063055;27;20054;-72
2023/09/20 02:45:49;;;;;;;13.52;9.60;;;;;;;13.29;nan;99343.78;5099604;27;20408;-71
2023/09/20 02:48:14;;;;;;;13.93;10.35;;;;;;;13.36;nan;99355.63;5114713;27;20493;-72
2023/09/20 02:50:44;;;;;;;13.57;9.25;;;;;;;13.32;nan;99343.50;5099815;27;20030;-71
2023/09/20 02:53:09;;;;;;;15.18;9.90;;;;;;;13.30;nan;99340.13;5117196;27;20038;-70
2023/09/20 02:55:35;;;;;;;13.85;11.30;;;;;;;13.28;nan;99358.16;5099624;27;20035;-71
2023/09/20 02:58:00;;;;;;;13.73;10.63;;;;;;;13.23;nan;99301.47;5099842;27;20042;-71
2023/09/20 03:00:29;;;;;;;14.60;9.63;;;;;;;13.22;nan;99343.44;5098821;27;20085;-71
2023/09/20 03:02:57;;;;;;;15.43;10.00;;;;;;;13.20;nan;99345.44;5101860;27;20042;-71
2023/09/20 03:05:29;;;;;;;12.98;9.55;;;;;;;13.21;nan;99340.91;5084843;27;20042;-71
2023/09/20 03:07:55;;;;;;;14.10;9.88;;;;;;;13.20;nan;99360.66;5099229;27;20050;-71
2023/09/20 03:10:22;;;;;;;16.63;10.20;;;;;;;13.21;nan;99347.09;5117181;27;20043;-72
2023/09/20 03:12:54;;;;;;;13.48;10.45;;;;;;;13.22;nan;99343.44;5100049;27;20038;-71
2023/09/20 03:15:25;;;;;;;14.30;10.43;;;;;;;13.25;nan;99331.63;5117923;27;20800;-71
2023/09/20 03:17:54;;;;;;;14.40;10.23;;;;;;;13.22;nan;99340.78;5082467;27;20503;-72
2023/09/20 03:20:23;;;;;;;16.33;10.60;;;;;;;13.24;nan;99346.00;5085701;27;20042;-72
2023/09/20 03:22:54;;;;;;;15.88;9.70;;;;;;;13.25;nan;99348.53;5099616;27;20046;-74
2023/09/20 03:25:23;;;;;;;14.55;10.10;;;;;;;13.21;nan;99356.97;5064486;27;20180;-72
2023/09/20 03:27:51;;;;;;;16.48;10.63;;;;;;;13.20;nan;99339.25;5082644;27;20042;-74
2023/09/20 03:30:16;;;;;;;11.73;9.65;;;;;;;13.23;nan;99346.97;5098902;27;20050;-72
2023/09/20 03:32:44;;;;;;;15.85;11.02;;;;;;;13.27;nan;99343.91;5117398;27;20034;-73
2023/09/20 03:35:12;;;;;;;14.43;10.43;;;;;;;13.30;nan;99345.47;5117394;27;20042;-72
2023/09/20 03:37:40;;;;;;;18.38;9.65;;;;;;;13.32;nan;99338.13;5099193;27;20137;-71
2023/09/20 03:40:10;;;;;;;16.38;11.30;;;;;;;13.32;nan;99359.56;5099198;27;20057;-72
2023/09/20 03:42:40;;;;;;;16.83;11.77;;;;;;;13.39;nan;99361.59;5081349;27;20054;-72
2023/09/20 03:45:10;;;;;;;14.40;9.88;;;;;;;13.54;nan;99342.47;5081542;27;20057;-71
2023/09/20 03:47:40;;;;;;;19.60;9.73;;;;;;;13.61;nan;99338.25;5099405;27;20043;-71
2023/09/20 03:50:09;;;;;;;15.80;9.68;;;;;;;13.61;nan;99341.78;5091008;27;20038;-72
2023/09/20 03:52:39;;;;;;;13.95;10.13;;;;;;;13.68;nan;99334.03;5085191;27;20437;-71
2023/09/20 03:55:07;;;;;;;16.60;9.95;;;;;;;13.72;nan;99297.97;5095143;27;20043;-70
2023/09/20 03:57:33;;;;;;;15.50;9.68;;;;;;;13.80;nan;99332.94;5098630;27;20397;-72
2023/09/20 04:00:00;;;;;;;14.35;9.30;;;;;;;13.84;nan;99328.19;5098620;27;20039;-71
2023/09/20 04:02:28;;;;;;;14.60;9.00;;;;;;;13.91;nan;99298.00;5098596;27;20043;-72
2023/09/20 04:04:55;;;;;;;13.63;9.80;;;;;;;13.97;nan;99337.66;5098678;27;20053;-72
2023/09/20 04:07:24;;;;;;;13.40;9.93;;;;;;;14.03;nan;99345.13;5098530;27;20499;-72
2023/09/20 04:09:49;;;;;;;13.07;10.48;;;;;;;14.13;nan;99335.25;5098350;27;20045;-72
2023/09/20 04:12:14;;;;;;;15.52;9.27;;;;;;;14.26;nan;99339.50;5080890;27;20051;-71
2023/09/20 04:14:43;;;;;;;18.10;10.00;;;;;;;14.39;nan;99340.97;5116484;27;20038;-71
2023/09/20 04:17:09;;;;;;;13.25;9.43;;;;;;;14.52;nan;99346.91;5098310;27;20057;-71
2023/09/20 04:19:34;;;;;;;13.07;9.57;;;;;;;14.52;nan;99346.91;5098243;27;20477;-73
2023/09/20 04:22:04;;;;;;;13.30;9.18;;;;;;;14.64;nan;99350.28;5098357;27;20759;-72
2023/09/20 04:24:33;;;;;;;14.63;10.32;;;;;;;14.67;nan;99349.16;5098177;27;20034;-73
2023/09/20 04:26:59;;;;;;;13.02;9.85;;;;;;;14.81;nan;99348.69;5098190;27;20042;-72
2023/09/20 04:29:25;;;;;;;15.48;10.55;;;;;;;14.88;nan;99315.78;5094807;27;20412;-71
2023/09/20 04:31:52;;;;;;;14.93;9.63;;;;;;;14.96;nan;99355.31;5095953;27;20639;-73
2023/09/20 04:34:20;;;;;;;14.63;9.45;;;;;;;15.05;nan;99370.56;5094954;27;20042;-72
2023/09/20 04:36:45;;;;;;;14.48;9.48;;;;;;;15.17;nan;99347.06;5076952;27;20043;-73
2023/09/20 04:39:11;;;;;;;14.90;9.38;;;;;;;15.24;nan;99365.13;5094574;27;20050;-72
2023/09/20 04:41:38;;;;;;;16.10;10.30;;;;;;;15.33;nan;99347.31;5094939;27;20069;-73
2023/09/20 04:44:07;;;;;;;15.02;10.25;;;;;;;15.43;nan;99352.63;5077245;27;20055;-73
2023/09/20 04:46:35;;;;;;;12.02;9.00;;;;;;;15.53;nan;99342.69;5094701;27;20043;-73
2023/09/20 04:49:03;;;;;;;13.18;10.15;;;;;;;15.59;nan;99339.44;5094523;27;20035;-73
2023/09/20 04:51:29;;;;;;;12.23;9.73;;;;;;;15.69;nan;99342.09;5094759;27;20039;-72
2023/09/20 04:53:55;;;;;;;14.98;9.82;;;;;;;15.81;nan;99335.50;5094325;27;20050;-70
2023/09/20 04:56:20;;;;;;;15.75;9.65;;;;;;;15.82;nan;99334.50;5094871;27;20043;-69
2023/09/20 04:58:45;;;;;;;15.77;9.63;;;;;;;15.90;nan;99340.84;5060193;27;20848;-70
2023/09/20 05:01:11;;;;;;;14.48;10.00;;;;;;;16.06;nan;99340.16;5076827;27;20047;-70
2023/09/20 05:03:39;;;;;;;13.05;9.73;;;;;;;16.14;nan;99342.91;5110328;27;20057;-71
2023/09/20 05:06:05;;;;;;;13.60;9.40;;;;;;;16.27;nan;99335.31;5115305;27;20039;-72
2023/09/20 05:08:31;;;;;;;12.38;8.25;;;;;;;16.36;nan;99346.19;5097140;27;20054;-71
2023/09/20 05:10:56;;;;;;;16.67;9.98;;;;;;;16.43;nan;99352.63;5101164;27;20047;-72
2023/09/20 05:13:22;;;;;;;13.48;9.52;;;;;;;16.55;nan;99349.56;5101803;27;20045;-73
2023/09/20 05:15:47;;;;;;;15.32;8.57;;;;;;;16.63;nan;99343.44;5100884;27;20065;-73
2023/09/20 05:18:13;;;;;;;14.15;9.65;;;;;;;16.70;nan;99339.13;5098138;27;20038;-72
2023/09/20 05:20:39;;;;;;;14.38;9.60;;;;;;;16.88;nan;99364.16;5098975;27;20433;-72
2023/09/20 05:23:05;;;;;;;14.52;8.35;;;;;;;17.09;nan;99341.41;5098395;27;20039;-72
2023/09/20 05:25:31;;;;;;;15.77;10.10;;;;;;;17.39;nan;99363.31;5097768;27;20047;-71
2023/09/20 05:27:57;;;;;;;15.77;9.63;;;;;;;17.63;nan;99359.94;5097673;27;20079;-70
2023/09/20 05:30:24;;;;;;;12.82;9.80;;;;;;;17.98;nan;99353.50;5098865;27;20042;-71
2023/09/20 05:32:51;;;;;;;17.25;10.10;;;;;;;18.80;nan;99333.75;5098855;27;20046;-70
2023/09/20 05:35:17;;;;;;;14.05;9.38;;;;;;;19.63;nan;99329.91;5098213;27;20038;-70
2023/09/20 05:37:43;;;;;;;11.88;8.55;;;;;;;20.17;nan;99339.78;5116271;27;20504;-69
2023/09/20 05:40:17;;;;;;;12.68;9.75;;;;;;;20.73;nan;99340.44;5088614;27;20050;-69
2023/09/20 05:42:50;;;;;;;17.90;10.20;;;;;;;21.44;nan;99330.13;5097331;27;20039;-70
2023/09/20 05:45:19;;;;;;;15.05;9.50;;;;;;;22.08;nan;99318.47;5115701;27;20053;-70
2023/09/20 05:47:44;;;;;;;12.75;8.45;;;;;;;22.84;nan;99320.72;5096933;27;20058;-71
2023/09/20 05:50:10;;;;;;;21.77;9.57;;;;;;;23.44;nan;99318.25;5115841;27;20057;-69
2023/09/20 05:52:40;;;;;;;16.13;9.23;;;;;;;24.11;nan;99325.72;5081273;27;20412;-69
2023/09/20 05:55:13;;;;;;;13.02;9.35;;;;;;;24.35;nan;99321.63;5116508;27;20039;-70
2023/09/20 05:57:38;;;;;;;16.00;8.77;;;;;;;24.02;nan;99304.31;5117882;27;20046;-70
2023/09/20 06:00:18;;;;;;;13.45;9.30;;;;;;;23.80;nan;99349.88;5096852;27;20042;-70
2023/09/20 06:02:44;;;;;;;14.50;9.02;;;;;;;23.55;nan;99325.03;5096723;27;20050;-70
2023/09/20 06:05:18;;;;;;;12.90;8.63;;;;;;;23.27;nan;99326.91;5097743;27;20054;-71
2023/09/20 06:07:44;;;;;;;15.13;8.82;;;;;;;23.42;nan;99336.66;5115299;27;20050;-72
2023/09/20 06:10:11;;;;;;;17.10;8.65;;;;;;;23.68;nan;99329.72;5095847;27;20054;-72
2023/09/20 06:12:37;;;;;;;14.23;9.68;;;;;;;23.96;nan;99321.47;5100679;27;20552;-71
2023/09/20 06:15:04;;;;;;;16.17;9.60;;;;;;;24.41;nan;99341.75;5101196;27;20046;-73
2023/09/20 06:17:34;;;;;;;23.95;8.77;;;;;;;25.15;nan;99315.22;5119287;27;20038;-72
2023/09/20 06:19:59;;;;;;;14.35;8.52;;;;;;;25.85;nan;99340.91;5118761;27;20413;-74
2023/09/20 06:22:29;;;;;;;13.10;8.65;;;;;;;26.51;nan;99313.31;5100754;27;20124;-72
2023/09/20 06:24:58;;;;;;;11.35;9.10;;;;;;;27.37;nan;99307.97;5118976;27;20057;-72
2023/09/20 06:27:23;;;;;;;12.43;7.63;;;;;;;28.35;nan;99320.75;5099615;27;20425;-73
2023/09/20 06:29:49;;;;;;;13.95;8.80;;;;;;;28.52;nan;99328.13;5100857;27;20046;-72
2023/09/20 06:32:15;;;;;;;19.67;8.52;;;;;;;28.68;nan;99314.78;5100564;27;20039;-72
2023/09/20 06:34:47;;;;;;;11.98;8.68;;;;;;;29.38;nan;99317.69;5104037;27;20042;-71
2023/09/20 06:37:12;;;;;;;11.73;8.68;;;;;;;30.09;nan;99306.34;5120180;27;20038;-74
2023/09/20 06:39:37;;;;;;;11.63;7.82;;;;;;;30.62;nan;99300.53;5118890;27;20054;-74
2023/09/20 06:42:04;;;;;;;15.25;9.60;;;;;;;30.83;nan;99284.34;5099473;27;20047;-72
2023/09/20 06:44:35;;;;;;;11.82;8.52;;;;;;;31.56;nan;99316.38;5083065;27;20050;-72
2023/09/20 06:47:02;;;;;;;12.35;8.60;;;;;;;31.70;nan;99312.22;5099266;27;20051;-70
2023/09/20 06:49:28;;;;;;;12.88;9.18;;;;;;;32.02;nan;99304.91;5118488;27;20042;-73
2023/09/20 06:51:56;;;;;;;11.18;8.38;;;;;;;32.04;nan;99312.94;5118350;27;20050;-72
2023/09/20 06:54:21;;;;;;;11.68;8.85;;;;;;;32.35;nan;99308.63;5100211;27;20046;-70
2023/09/20 06:56:47;;;;;;;14.90;9.70;;;;;;;32.56;nan;99307.72;5081932;27;20087;-71
2023/09/20 06:59:12;;;;;;;12.82;8.88;;;;;;;32.00;nan;99329.16;5118444;27;20050;-71
2023/09/20 07:01:39;;;;;;;15.27;9.60;;;;;;;31.72;nan;99337.56;5099620;27;20058;-71
2023/09/20 07:04:05;;;;;;;16.38;11.20;;;;;;;32.27;nan;99322.88;5118510;27;20047;-74
2023/09/20 07:06:31;;;;;;;14.55;8.85;;;;;;;32.63;nan;99338.72;5118289;27;20042;-71
2023/09/20 07:08:57;;;;;;;13.13;8.30;;;;;;;33.21;nan;99327.94;5118425;27;20054;-71
2023/09/20 07:11:23;;;;;;;15.40;9.25;;;;;;;33.58;nan;99320.50;5118403;27;20401;-70
2023/09/20 07:13:48;;;;;;;19.55;9.23;;;;;;;34.04;nan;99318.81;5118219;27;20485;-71
2023/09/20 07:16:14;;;;;;;13.57;7.88;;;;;;;34.96;nan;99306.06;5098837;27;20050;-71
2023/09/20 07:18:44;;;;;;;18.95;9.00;;;;;;;35.42;nan;99308.81;5117977;27;20039;-71
2023/09/20 07:21:10;;;;;;;13.38;9.10;;;;;;;35.57;nan;99325.41;5118024;27;20046;-72
2023/09/20 07:23:35;;;;;;;11.35;9.77;;;;;;;35.71;nan;99307.06;5117166;27;20512;-72
2023/09/20 07:26:00;;;;;;;15.63;9.65;;;;;;;35.71;nan;99320.13;5099195;27;20050;-72
2023/09/20 07:28:26;;;;;;;11.68;8.80;;;;;;;35.25;nan;99343.22;5117880;27;20050;-72
2023/09/20 07:30:51;;;;;;;12.75;9.32;;;;;;;34.56;nan;99313.19;5117956;27;20049;-72
2023/09/20 07:33:23;;;;;;;12.40;9.25;;;;;;;34.97;nan;99310.50;5117806;27;20043;-70
2023/09/20 07:36:00;;;;;;;13.55;8.70;;;;;;;35.92;nan;99330.06;5117710;27;20034;-71
2023/09/20 07:38:27;;;;;;;17.83;8.95;;;;;;;36.16;nan;99324.69;5098310;27;20058;-72
2023/09/20 07:40:53;;;;;;;12.43;9.43;;;;;;;36.60;nan;99324.75;5117433;27;20043;-70
2023/09/20 07:43:20;;;;;;;11.82;8.70;;;;;;;36.74;nan;99339.69;5117464;27;20054;-70
2023/09/20 07:45:45;;;;;;;9.93;8.45;;;;;;;37.14;nan;99323.81;5117433;27;20074;-70
2023/09/20 07:48:13;;;;;;;15.82;9.63;;;;;;;37.77;nan;99349.69;5117280;27;20034;-70
2023/09/20 07:50:40;;;;;;;10.27;9.13;;;;;;;37.57;nan;99311.75;5117538;27;20042;-70
2023/09/20 07:53:10;;;;;;;9.93;8.77;;;;;;;37.60;nan;99335.34;5117397;27;20153;-69
2023/09/20 07:55:36;;;;;;;12.30;8.82;;;;;;;36.80;nan;99313.53;5098777;27;20054;-70
2023/09/20 07:58:01;;;;;;;12.85;8.57;;;;;;;36.84;nan;99320.16;5098737;27;20039;-70
2023/09/20 08:00:26;;;;;;;11.55;8.48;;;;;;;36.96;nan;99317.84;5117112;27;20508;-70
2023/09/20 08:02:54;;;;;;;11.48;8.88;;;;;;;36.61;nan;99313.34;5117197;27;20043;-70
2023/09/20 08:05:19;;;;;;;12.77;8.43;;;;;;;36.42;nan;99322.66;5116911;27;20050;-70
2023/09/20 08:07:44;;;;;;;13.32;9.88;;;;;;;35.91;nan;99317.28;5098599;27;20865;-70
2023/09/20 08:10:10;;;;;;;15.30;9.00;;;;;;;35.33;nan;99314.09;5116851;27;20045;-71
2023/09/20 08:12:35;;;;;;;12.60;9.30;;;;;;;35.11;nan;99307.97;5116854;27;20042;-71
2023/09/20 08:15:01;;;;;;;12.52;8.45;;;;;;;35.64;nan;99301.00;5116940;27;20050;-70
2023/09/20 08:20:11;;;;;;;12.98;9.35;;;;;;;36.57;nan;99315.03;5116810;27;20065;-71
2023/09/20 09:01:04;;;;;;;13.93;10.30;;;;;;;38.94;nan;99278.50;5116546;27;20038;-74
2023/09/20 09:03:31;;;;;;;10.20;8.55;;;;;;;37.76;nan;99286.81;5116042;27;20039;-72
2023/09/20 09:06:00;;;;;;;11.82;8.57;;;;;;;36.83;nan;99278.78;5115830;27;20039;-72
2023/09/20 09:08:26;;;;;;;10.32;8.45;;;;;;;36.09;nan;99275.06;5115961;27;20054;-71
2023/09/20 09:10:51;;;;;;;15.13;9.70;;;;;;;35.14;nan;99279.72;5115902;27;20413;-72
2023/09/20 09:13:16;;;;;;;10.32;8.48;;;;;;;35.06;nan;99271.97;5097031;27;20520;-73
2023/09/20 09:15:44;;;;;;;13.43;9.00;;;;;;;34.52;nan;99272.50;5116180;27;20035;-71
2023/09/20 09:18:16;;;;;;;14.45;8.75;;;;;;;34.40;nan;99285.75;5116066;27;20050;-72
2023/09/20 09:20:41;;;;;;;10.40;8.88;;;;;;;33.98;nan;99267.31;5112697;27;20045;-70
2023/09/20 09:23:07;;;;;;;12.75;9.20;;;;;;;33.84;nan;99260.66;5097558;27;20053;-71
2023/09/20 09:25:33;;;;;;;11.23;8.27;;;;;;;33.88;nan;99278.34;5115673;27;20039;-71
2023/09/20 09:27:58;;;;;;;23.80;9.52;;;;;;;33.82;nan;99263.69;5117567;27;20038;-72
2023/09/20 09:30:23;;;;;;;11.15;8.90;;;;;;;34.16;nan;99253.00;5117136;27;20047;-71
2023/09/20 09:32:48;;;;;;;13.35;9.07;;;;;;;35.06;nan;99255.34;5117359;27;20046;-71
2023/09/20 09:35:19;;;;;;;10.43;8.63;;;;;;;35.63;nan;99239.16;5099195;27;20050;-70
2023/09/20 09:37:45;;;;;;;15.43;8.48;;;;;;;36.31;nan;99252.47;5115750;27;20043;-71
2023/09/20 09:40:14;;;;;;;10.50;7.97;;;;;;;35.55;nan;99264.72;5096353;27;20073;-70
2023/09/20 09:42:44;;;;;;;15.75;8.75;;;;;;;35.19;nan;99263.09;5097030;27;20046;-71
2023/09/20 09:45:09;;;;;;;11.20;7.93;;;;;;;35.73;nan;99259.66;5115575;27;20038;-71
2023/09/20 09:47:35;;;;;;;14.05;8.75;;;;;;;36.89;nan;99260.97;5118362;27;20054;-71
2023/09/20 09:50:03;;;;;;;15.00;8.77;;;;;;;38.11;nan;99261.34;5119182;27;20031;-71
2023/09/20 09:52:31;;;;;;;12.60;8.60;;;;;;;38.12;nan;99262.16;5083584;27;20058;-73
2023/09/20 09:54:56;;;;;;;9.27;8.38;;;;;;;37.87;nan;99213.19;5100740;27;20046;-74
2023/09/20 09:57:23;;;;;;;11.45;9.15;;;;;;;37.11;nan;99252.13;5097413;27;20417;-72
2023/09/20 09:59:49;;;;;;;10.98;8.10;;;;;;;36.37;nan;99249.38;5099388;27;20034;-73
2023/09/20 10:02:19;;;;;;;8.80;7.93;;;;;;;36.18;nan;99256.69;5099508;27;20062;-70
2023/09/20 10:04:59;;;;;;;10.82;7.50;;;;;;;36.72;nan;99258.59;5094750;27;20034;-73
2023/09/20 10:07:35;;;;;;;11.38;8.38;;;;;;;36.50;nan;99253.44;5099395;27;20054;-71
2023/09/20 10:10:12;;;;;;;12.77;8.70;;;;;;;35.52;nan;99245.84;5119143;27;20038;-72
2023/09/20 10:12:39;;;;;;;17.63;8.52;;;;;;;33.60;nan;99246.41;5104739;27;20038;-70
2023/09/20 10:15:07;;;;;;;12.52;8.70;;;;;;;31.95;nan;99275.84;5099668;27;20046;-71
2023/09/20 10:17:44;;;;;;;11.50;7.50;;;;;;;30.90;nan;99247.34;5118789;27;20089;-72
2023/09/20 10:20:10;;;;;;;14.35;8.38;;;;;;;29.75;nan;99255.88;5117644;27;20049;-74
2023/09/20 10:22:41;;;;;;;12.70;7.95;;;;;;;28.98;nan;99255.22;5118652;27;20035;-74
2023/09/20 10:25:28;;;;;;;14.73;8.10;;;;;;;28.92;nan;99256.16;5097231;27;20039;-74
2023/09/20 10:27:53;;;;;;;9.82;8.13;;;;;;;27.96;nan;99253.59;5087368;27;20499;-73
2023/09/20 10:30:21;;;;;;;13.80;9.27;;;;;;;27.58;nan;99259.34;5099758;27;20057;-73
2023/09/20 10:32:53;;;;;;;13.85;7.82;;;;;;;27.48;nan;99259.84;5083525;27;20046;-73
2023/09/20 10:35:35;;;;;;;19.48;8.18;;;;;;;26.83;nan;99266.78;5117134;27;20050;-74
2023/09/20 10:38:20;;;;;;;16.27;8.98;;;;;;;26.49;nan;99257.19;5118743;27;20042;-73
2023/09/20 10:40:45;;;;;;;11.70;8.38;;;;;;;26.13;nan;99253.16;5099609;27;20053;-73
2023/09/20 10:43:36;;;;;;;16.73;8.40;;;;;;;26.18;nan;99256.09;5097585;27;20041;-76
2023/09/20 10:46:09;;;;;;;19.67;8.90;;;;;;;25.72;nan;99280.06;5056132;27;20043;-73
2023/09/20 10:48:39;;;;;;;11.40;7.43;;;;;;;25.63;nan;99254.88;5118583;27;20053;-72
2023/09/20 10:51:06;;;;;;;16.42;8.43;;;;;;;25.49;nan;99221.31;5118251;27;20053;-73
2023/09/20 10:53:44;;;;;;;20.90;8.05;;;;;;;25.54;nan;99278.81;5117315;27;20042;-74
2023/09/20 10:56:12;;;;;;;13.65;8.27;;;;;;;25.45;nan;99268.34;5099625;27;20485;-73
2023/09/20 10:58:41;;;;;;;16.15;7.90;;;;;;;25.44;nan;99272.13;5098690;27;20050;-73
2023/09/20 11:01:09;;;;;;;14.82;8.55;;;;;;;25.38;nan;99252.00;5118347;27;20049;-73
2023/09/20 11:03:34;;;;;;;14.70;8.45;;;;;;;25.35;nan;99254.31;5099290;27;20042;-71
2023/09/20 11:06:00;;;;;;;12.38;7.63;;;;;;;25.21;nan;99273.44;5116868;27;20039;-73
2023/09/20 11:08:25;;;;;;;14.55;6.88;;;;;;;25.10;nan;99265.91;5118498;27;20050;-73
2023/09/20 11:10:50;;;;;;;13.48;7.63;;;;;;;24.97;nan;99260.47;5116455;27;20034;-73
2023/09/20 11:13:19;;;;;;;12.23;7.47;;;;;;;24.97;nan;99249.56;5078478;27;20047;-72
2023/09/20 11:15:46;;;;;;;21.00;8.82;;;;;;;24.87;nan;99243.66;5093407;27;20046;-72
2023/09/20 11:18:17;;;;;;;12.48;7.82;;;;;;;24.90;nan;99255.00;5098828;27;20109;-72
2023/09/20 11:20:43;;;;;;;12.30;7.97;;;;;;;24.85;nan;99273.88;5117762;27;20043;-74
2023/09/20 11:23:09;;;;;;;9.15;7.40;;;;;;;24.83;nan;99259.59;5117962;27;20046;-73
2023/09/20 11:25:36;;;;;;;14.27;7.68;;;;;;;24.83;nan;99264.25;5117748;27;20038;-73
2023/09/20 11:28:01;;;;;;;11.02;7.13;;;;;;;24.86;nan;99252.88;5118005;27;20039;-73
2023/09/20 11:30:27;;;;;;;9.93;7.80;;;;;;;24.82;nan;99251.66;5117437;27;20042;-74
2023/09/20 11:32:54;;;;;;;10.40;7.35;;;;;;;24.75;nan;99258.97;5117093;27;20050;-74
2023/09/20 11:35:37;;;;;;;10.60;7.25;;;;;;;24.78;nan;99256.69;5117812;27;20408;-72
2023/09/20 11:38:04;;;;;;;16.23;8.23;;;;;;;24.68;nan;99248.09;5117412;27;20043;-72
2023/09/20 11:40:35;;;;;;;15.95;7.55;;;;;;;24.65;nan;99237.59;5117434;27;20054;-72
2023/09/20 11:43:05;;;;;;;15.38;6.93;;;;;;;24.61;nan;99255.41;5096798;27;20038;-71
2023/09/20 11:45:34;;;;;;;11.13;7.10;;;;;;;24.56;nan;99257.94;5117275;27;20045;-72
2023/09/20 11:48:05;;;;;;;20.35;6.82;;;;;;;24.57;nan;99232.38;5097578;27;20046;-73
2023/09/20 11:50:30;;;;;;;14.65;6.97;;;;;;;24.43;nan;99244.28;5101890;27;20039;-73
2023/09/20 11:52:55;;;;;;;10.63;7.18;;;;;;;24.44;nan;99235.06;5081664;27;20039;-73
2023/09/20 11:55:21;;;;;;;12.50;7.38;;;;;;;24.45;nan;99221.25;5117048;27;20034;-72
2023/09/20 11:57:47;;;;;;;12.63;7.28;;;;;;;24.51;nan;99206.78;5092423;27;20437;-73
2023/09/20 12:00:17;;;;;;;10.32;7.30;;;;;;;24.60;nan;99216.41;5095245;27;20054;-72
2023/09/20 12:02:42;;;;;;;14.25;7.82;;;;;;;24.45;nan;99240.31;5103651;27;20043;-73
2023/09/20 12:05:08;;;;;;;12.50;7.30;;;;;;;24.33;nan;99258.34;5098263;27;20042;-74
2023/09/20 12:07:34;;;;;;;16.95;7.03;;;;;;;24.20;nan;99231.88;5097816;27;20042;-71
2023/09/20 12:09:59;;;;;;;13.20;7.50;;;;;;;24.18;nan;99228.50;5097871;27;20050;-72
2023/09/20 12:12:25;;;;;;;14.40;7.70;;;;;;;24.09;nan;99245.25;5116989;27;20045;-72
2023/09/20 12:14:50;;;;;;;16.05;7.15;;;;;;;24.05;nan;99233.09;5117298;27;20046;-72
2023/09/20 12:17:15;;;;;;;10.38;6.90;;;;;;;24.01;nan;99219.06;5098408;27;20045;-71
2023/09/20 12:19:41;;;;;;;13.85;7.53;;;;;;;24.01;nan;99229.97;5116144;27;20058;-72
2023/09/20 12:22:07;;;;;;;12.20;7.40;;;;;;;23.93;nan;99230.13;5097065;27;20492;-74
2023/09/20 12:24:32;;;;;;;14.55;7.93;;;;;;;23.88;nan;99225.31;5116538;27;20050;-75